createdAt,value
2022-08-12T00:02:07.629Z,100.00
2022-08-12T00:04:54.573Z,100.00
2022-08-12T00:07:42.131Z,100.00
2022-08-12T00:10:28.497Z,100.00
2022-08-12T00:13:15.023Z,100.00
2022-08-12T00:16:03.947Z,100.00
2022-08-12T00:18:50.568Z,100.00
2022-08-12T00:21:38.393Z,100.00
2022-08-12T00:24:26.513Z,100.00
2022-08-12T00:27:13.932Z,100.00
2022-08-12T00:30:01.363Z,100.00
2022-08-12T00:32:56.759Z,100.00
2022-08-12T00:35:44.380Z,100.00
2022-08-12T00:38:31.563Z,100.00
2022-08-12T00:41:19.117Z,100.00
2022-08-12T00:43:48.598Z,100.00
2022-08-12T00:46:32.154Z,100.00
2022-08-12T00:49:02.135Z,100.00
2022-08-12T00:51:49.384Z,100.00
2022-08-12T00:54:19.403Z,100.00
2022-08-12T00:56:49.020Z,100.00
2022-08-12T00:59:18.594Z,100.00
2022-08-12T01:02:10.924Z,100.00
2022-08-12T01:04:57.942Z,100.00
2022-08-12T01:07:47.569Z,100.00
2022-08-12T01:10:34.533Z,100.00
2022-08-12T01:13:18.579Z,100.00
2022-08-12T01:15:52.938Z,100.00
2022-08-12T01:18:23.562Z,100.00
2022-08-12T01:21:13.580Z,100.00
2022-08-12T01:23:47.699Z,100.00
2022-08-12T01:26:23.487Z,100.00
2022-08-12T01:28:59.992Z,100.00
2022-08-12T01:31:29.780Z,100.00
2022-08-12T01:34:03.571Z,100.00
2022-08-12T01:36:40.247Z,100.00
2022-08-12T01:39:09.713Z,100.00
2022-08-12T01:41:52.093Z,100.00
2022-08-12T01:44:23.284Z,100.00
2022-08-12T01:47:04.178Z,100.00
2022-08-12T01:49:53.911Z,100.00
2022-08-12T01:52:44.893Z,100.00
2022-08-12T01:55:16.151Z,100.00
2022-08-12T01:57:58.948Z,100.00
2022-08-12T02:00:55.158Z,100.00
2022-08-12T02:04:02.830Z,100.00
2022-08-12T02:07:07.361Z,100.00
2022-08-12T02:10:50.719Z,100.00
2022-08-12T02:13:42.011Z,100.00
2022-08-12T02:16:35.346Z,100.00
2022-08-12T02:19:22.932Z,100.00
2022-08-12T02:22:20.990Z,100.00
2022-08-12T02:24:50.945Z,100.00
2022-08-12T02:27:22.086Z,100.00
2022-08-12T02:29:50.459Z,100.00
2022-08-12T02:32:18.952Z,100.00
2022-08-12T02:34:47.597Z,100.00
2022-08-12T02:37:17.909Z,100.00
2022-08-12T02:39:49.878Z,100.00
2022-08-12T02:42:23.581Z,100.00
2022-08-12T02:44:55.785Z,100.00
2022-08-12T02:47:58.381Z,100.00
2022-08-12T02:50:20.598Z,100.00
2022-08-12T02:52:52.940Z,100.00
2022-08-12T02:55:34.320Z,100.00
2022-08-12T02:58:09.108Z,100.00
2022-08-12T03:00:41.744Z,100.00
2022-08-12T03:03:13.626Z,100.00
2022-08-12T03:05:49.029Z,100.00
2022-08-12T03:08:32.808Z,100.00
2022-08-12T03:11:42.781Z,100.00
2022-08-12T03:14:19.964Z,100.00
2022-08-12T03:16:55.681Z,100.00
2022-08-12T03:19:24.881Z,100.00
2022-08-12T03:22:08.764Z,100.00
2022-08-12T03:24:38.993Z,100.00
2022-08-12T03:27:09.582Z,100.00
2022-08-12T03:29:43.355Z,100.00
2022-08-12T03:32:36.425Z,100.00
2022-08-12T03:35:07.901Z,100.00
2022-08-12T03:37:37.531Z,100.00
2022-08-12T03:40:08.986Z,100.00
2022-08-12T03:42:52.072Z,100.00
2022-08-12T03:45:52.006Z,100.00
2022-08-12T03:48:39.445Z,100.00
2022-08-12T03:51:26.327Z,100.00
2022-08-12T03:54:12.722Z,100.00
2022-08-12T03:56:59.041Z,100.00
2022-08-12T03:59:47.618Z,100.00
2022-08-12T04:02:16.675Z,100.00
2022-08-12T04:04:45.754Z,100.00
2022-08-12T04:07:16.447Z,100.00
2022-08-12T04:09:46.459Z,100.00
2022-08-12T04:12:33.697Z,100.00
2022-08-12T04:15:03.063Z,100.00
2022-08-12T04:17:32.073Z,100.00
2022-08-12T04:20:00.349Z,100.00
2022-08-12T04:22:30.778Z,100.00
2022-08-12T04:25:02.995Z,100.00
2022-08-12T04:27:32.562Z,100.00
2022-08-12T04:30:30.213Z,100.00
2022-08-12T04:32:54.038Z,100.00
2022-08-12T04:35:22.225Z,100.00
2022-08-12T04:38:00.295Z,100.00
2022-08-12T04:40:32.609Z,100.00
2022-08-12T04:43:01.673Z,100.00
2022-08-12T04:45:33.174Z,100.00
2022-08-12T04:48:04.548Z,100.00
2022-08-12T04:50:35.836Z,100.00
2022-08-12T04:53:08.414Z,100.00
2022-08-12T04:55:38.758Z,100.00
2022-08-12T04:58:10.395Z,100.00
2022-08-12T05:00:39.266Z,100.00
2022-08-12T05:03:08.248Z,100.00
2022-08-12T05:05:40.320Z,100.00
2022-08-12T05:08:16.306Z,100.00
2022-08-12T05:10:46.612Z,100.00
2022-08-12T05:13:26.174Z,100.00
2022-08-12T05:16:04.432Z,100.00
2022-08-12T05:18:39.493Z,100.00
2022-08-12T05:21:09.458Z,100.00
2022-08-12T05:23:39.457Z,100.00
2022-08-12T05:26:07.576Z,100.00
2022-08-12T05:28:37.184Z,100.00
2022-08-12T05:31:05.496Z,100.00
2022-08-12T05:33:41.131Z,100.00
2022-08-12T05:36:14.869Z,100.00
2022-08-12T05:38:56.853Z,100.00
2022-08-12T05:41:29.551Z,100.00
2022-08-12T05:44:17.758Z,100.00
2022-08-12T05:46:45.961Z,100.00
2022-08-12T05:49:14.306Z,100.00
2022-08-12T05:51:44.026Z,100.00
2022-08-12T05:54:12.357Z,100.00
2022-08-12T05:56:41.694Z,100.00
2022-08-12T05:59:12.456Z,100.00
2022-08-12T06:02:10.636Z,100.00
2022-08-12T06:04:34.303Z,100.00
2022-08-12T06:07:02.624Z,100.00
2022-08-12T06:09:50.859Z,100.00
2022-08-12T06:12:23.400Z,100.00
2022-08-12T06:14:55.166Z,100.00
2022-08-12T06:17:26.361Z,100.00
2022-08-12T06:20:26.001Z,100.00
2022-08-12T06:22:44.962Z,100.00
2022-08-12T06:25:17.375Z,100.00
2022-08-12T06:28:06.739Z,100.00
2022-08-12T06:30:39.424Z,100.00
2022-08-12T06:33:22.602Z,100.00
2022-08-12T06:35:57.364Z,100.00
2022-08-12T06:38:29.363Z,100.00
2022-08-12T06:41:18.489Z,100.00
2022-08-12T06:44:06.951Z,100.00
2022-08-12T06:46:39.552Z,100.00
2022-08-12T06:49:09.799Z,100.00
2022-08-12T06:51:38.063Z,100.00
2022-08-12T06:54:07.766Z,100.00
2022-08-12T06:59:26.727Z,100.00
2022-08-12T07:01:55.793Z,100.00
2022-08-12T07:04:39.902Z,100.00
2022-08-12T07:07:11.270Z,100.00
2022-08-12T07:10:05.260Z,100.00
2022-08-12T07:12:32.769Z,100.00
2022-08-12T07:15:02.330Z,100.00
2022-08-12T07:17:37.986Z,100.00
2022-08-12T07:20:13.733Z,100.00
2022-08-12T07:23:00.746Z,100.00
2022-08-12T07:25:37.513Z,100.00
2022-08-12T07:28:20.084Z,100.00
2022-08-12T07:30:53.596Z,100.00
2022-08-12T07:33:25.846Z,100.00
2022-08-12T07:35:56.347Z,100.00
2022-08-12T07:38:30.753Z,100.00
2022-08-12T07:41:08.249Z,100.00
2022-08-12T07:43:54.077Z,100.00
2022-08-12T07:46:28.737Z,100.00
2022-08-12T07:49:02.022Z,100.00
2022-08-12T07:51:32.766Z,100.00
2022-08-12T07:54:05.593Z,100.00
2022-08-12T07:56:35.943Z,100.00
2022-08-12T07:59:05.770Z,100.00
2022-08-12T08:01:38.432Z,100.00
2022-08-12T08:04:32.998Z,100.00
2022-08-12T08:07:13.350Z,100.00
2022-08-12T08:09:45.729Z,100.00
2022-08-12T08:12:44.949Z,100.00
2022-08-12T08:16:02.849Z,100.00
2022-08-12T08:18:27.648Z,100.00
2022-08-12T08:21:05.905Z,100.00
2022-08-12T08:23:56.062Z,100.00
2022-08-12T08:26:27.246Z,100.00
2022-08-12T08:28:56.621Z,100.00
2022-08-12T08:31:25.755Z,100.00
2022-08-12T08:34:04.226Z,100.00
2022-08-12T08:36:39.804Z,100.00
2022-08-12T08:39:09.612Z,100.00
2022-08-12T08:42:16.029Z,100.00
2022-08-12T08:44:58.206Z,100.00
2022-08-12T08:47:30.139Z,100.00
2022-08-12T08:50:01.377Z,97.60
2022-08-12T08:52:40.214Z,96.07
2022-08-12T08:55:20.865Z,93.95
2022-08-12T08:58:03.961Z,94.37
2022-08-12T09:00:51.561Z,97.82
2022-08-12T09:07:17.069Z,91.03
2022-08-12T09:10:30.931Z,89.74
2022-08-12T09:16:09.636Z,86.31
2022-08-12T09:18:41.222Z,86.49
2022-08-12T09:21:10.801Z,88.15
2022-08-12T09:23:59.322Z,86.16
2022-08-12T09:30:10.107Z,83.82
2022-08-12T09:32:56.349Z,79.72
2022-08-12T09:35:02.381Z,78.52
2022-08-12T09:37:55.201Z,81.72
2022-08-12T09:41:01.739Z,78.24
2022-08-12T09:43:28.753Z,79.63
2022-08-12T09:46:19.494Z,79.16
2022-08-12T09:48:56.805Z,76.99
2022-08-12T09:51:37.363Z,73.62
2022-08-12T09:54:30.775Z,71.10
2022-08-12T09:56:59.903Z,68.17
2022-08-12T10:00:16.848Z,67.01
2022-08-12T10:02:41.856Z,66.84
2022-08-12T10:05:13.743Z,58.07
2022-08-12T10:07:46.270Z,53.59
2022-08-12T10:10:25.079Z,52.69
2022-08-12T10:13:34.441Z,49.80
2022-08-12T10:16:22.148Z,51.51
2022-08-12T10:18:57.927Z,51.65
2022-08-12T10:21:36.088Z,49.57
2022-08-12T10:24:19.973Z,48.62
2022-08-12T10:27:08.905Z,48.60
2022-08-12T10:30:38.700Z,49.58
2022-08-12T10:32:44.038Z,48.38
2022-08-12T10:35:16.093Z,47.09
2022-08-12T10:38:32.091Z,46.43
2022-08-12T10:40:59.777Z,45.64
2022-08-12T10:43:56.005Z,46.00
2022-08-12T10:46:31.289Z,44.35
2022-08-12T10:49:06.785Z,46.34
2022-08-12T10:52:04.112Z,46.07
2022-08-12T10:54:43.043Z,46.10
2022-08-12T10:57:17.877Z,46.44
2022-08-12T11:00:31.261Z,47.59
2022-08-12T11:04:26.007Z,46.38
2022-08-12T11:07:05.632Z,43.60
2022-08-12T11:08:37.714Z,42.94
2022-08-12T11:11:13.679Z,41.56
2022-08-12T11:13:48.318Z,41.30
2022-08-12T11:16:21.752Z,42.10
2022-08-12T11:18:56.843Z,41.57
2022-08-12T11:21:58.492Z,40.09
2022-08-12T11:24:34.336Z,39.50
2022-08-12T11:27:07.968Z,39.43
2022-08-12T11:30:00.570Z,40.18
2022-08-12T11:32:31.329Z,39.99
2022-08-12T11:35:11.480Z,38.94
2022-08-12T11:37:58.241Z,37.61
2022-08-12T11:40:29.093Z,37.53
2022-08-12T11:43:19.364Z,36.95
2022-08-12T11:45:53.380Z,36.57
2022-08-12T11:48:27.157Z,36.09
2022-08-12T11:50:57.291Z,36.63
2022-08-12T11:53:59.964Z,36.11
2022-08-12T11:56:19.196Z,35.73
2022-08-12T12:01:58.664Z,35.60
2022-08-12T12:02:02.529Z,34.32
2022-08-12T12:04:29.119Z,34.56
2022-08-12T12:07:07.302Z,32.67
2022-08-12T12:09:52.586Z,32.58
2022-08-12T12:12:25.127Z,32.79
2022-08-12T12:14:56.014Z,32.46
2022-08-12T12:17:38.248Z,31.65
2022-08-12T12:20:11.475Z,31.39
2022-08-12T12:22:45.439Z,31.31
2022-08-12T12:25:19.766Z,31.10
2022-08-12T12:28:05.096Z,30.76
2022-08-12T12:30:36.441Z,31.32
2022-08-12T12:33:07.553Z,31.88
2022-08-12T12:36:06.473Z,31.41
2022-08-12T12:38:30.336Z,30.89
2022-08-12T12:40:58.730Z,30.37
2022-08-12T12:43:28.939Z,30.47
2022-08-12T12:46:11.323Z,30.26
2022-08-12T12:48:44.303Z,29.81
2022-08-12T12:51:48.277Z,29.23
2022-08-12T12:54:09.883Z,28.79
2022-08-12T12:56:43.170Z,28.51
2022-08-12T12:59:55.434Z,29.15
2022-08-12T13:02:07.756Z,28.69
2022-08-12T13:04:38.466Z,28.44
2022-08-12T13:07:08.484Z,27.85
2022-08-12T13:09:38.259Z,27.76
2022-08-12T13:12:10.513Z,27.61
2022-08-12T13:14:41.976Z,27.33
2022-08-12T13:17:14.897Z,27.23
2022-08-12T13:19:50.067Z,27.08
2022-08-12T13:22:23.554Z,27.16
2022-08-12T13:24:59.009Z,27.44
2022-08-12T13:27:35.503Z,27.33
2022-08-12T13:30:12.623Z,26.72
2022-08-12T13:32:57.325Z,27.15
2022-08-12T13:35:33.207Z,27.29
2022-08-12T13:38:15.236Z,26.77
2022-08-12T13:40:58.627Z,25.81
2022-08-12T13:43:41.292Z,26.82
2022-08-12T13:46:20.397Z,26.63
2022-08-12T13:48:54.367Z,27.18
2022-08-12T13:51:24.757Z,26.73
2022-08-12T13:53:59.175Z,26.13
2022-08-12T13:56:34.882Z,24.55
2022-08-12T13:59:08.632Z,24.34
2022-08-12T14:01:40.632Z,24.07
2022-08-12T14:04:12.645Z,23.54
2022-08-12T14:07:02.639Z,24.09
2022-08-12T14:09:58.764Z,23.73
2022-08-12T14:12:54.061Z,23.11
2022-08-12T14:15:31.192Z,23.51
2022-08-12T14:18:16.316Z,23.89
2022-08-12T14:20:52.340Z,23.43
2022-08-12T14:24:01.020Z,23.42
2022-08-12T14:26:12.168Z,23.11
2022-08-12T14:28:45.183Z,23.03
2022-08-12T14:31:31.882Z,23.43
2022-08-12T14:34:05.107Z,23.24
2022-08-12T14:36:37.074Z,23.25
2022-08-12T14:39:07.076Z,22.60
2022-08-12T14:41:36.947Z,22.18
2022-08-12T14:44:59.817Z,22.10
2022-08-12T14:47:08.948Z,22.15
2022-08-12T14:50:37.503Z,22.14
2022-08-12T14:53:04.540Z,21.53
2022-08-12T14:58:07.949Z,21.43
2022-08-12T15:00:56.540Z,21.48
2022-08-12T15:03:52.668Z,20.81
2022-08-12T15:06:39.844Z,20.58
2022-08-12T15:09:09.344Z,21.00
2022-08-12T15:11:54.881Z,21.07
2022-08-12T15:14:27.505Z,22.11
2022-08-12T15:17:01.014Z,21.43
2022-08-12T15:20:27.929Z,20.83
2022-08-12T15:22:37.136Z,21.99
2022-08-12T15:25:10.298Z,22.01
2022-08-12T15:28:11.062Z,21.67
2022-08-12T15:30:40.725Z,21.83
2022-08-12T15:33:12.879Z,21.70
2022-08-12T15:35:52.209Z,21.46
2022-08-12T15:38:31.583Z,21.69
2022-08-12T15:41:02.017Z,22.60
2022-08-12T15:43:51.960Z,23.63
2022-08-12T15:46:21.148Z,23.89
2022-08-12T15:48:54.898Z,23.79
2022-08-12T15:51:59.510Z,24.05
2022-08-12T15:54:33.803Z,24.76
2022-08-12T15:57:07.769Z,25.47
2022-08-12T16:00:00.215Z,25.64
2022-08-12T16:02:29.383Z,25.25
2022-08-12T16:04:58.810Z,25.09
2022-08-12T16:07:30.178Z,25.69
2022-08-12T16:10:06.664Z,26.07
2022-08-12T16:12:55.151Z,25.72
2022-08-12T16:15:26.696Z,25.89
2022-08-12T16:18:14.961Z,25.65
2022-08-12T16:20:48.506Z,26.08
2022-08-12T16:23:35.776Z,26.21
2022-08-12T16:26:14.550Z,26.10
2022-08-12T16:28:47.416Z,26.18
2022-08-12T16:31:23.185Z,26.28
2022-08-12T16:33:59.666Z,26.52
2022-08-12T16:36:30.009Z,26.58
2022-08-12T16:39:01.632Z,26.75
2022-08-12T16:41:39.855Z,26.90
2022-08-12T16:44:09.559Z,26.39
2022-08-12T16:46:42.475Z,26.90
2022-08-12T16:49:26.529Z,27.86
2022-08-12T16:52:08.438Z,28.55
2022-08-12T16:54:43.149Z,28.68
2022-08-12T16:57:13.685Z,28.96
2022-08-12T16:59:53.495Z,29.08
2022-08-12T17:02:33.741Z,29.16
2022-08-12T17:05:07.281Z,29.84
2022-08-12T17:07:43.844Z,30.44
2022-08-12T17:10:18.462Z,31.63
2022-08-12T17:13:10.101Z,32.25
2022-08-12T17:15:41.398Z,32.04
2022-08-12T17:18:43.684Z,33.80
2022-08-12T17:21:40.744Z,34.90
2022-08-12T17:24:15.130Z,36.31
2022-08-12T17:26:49.429Z,38.01
2022-08-12T17:29:31.876Z,42.55
2022-08-12T17:32:14.582Z,43.31
2022-08-12T17:35:01.660Z,47.63
2022-08-12T17:37:30.180Z,50.67
2022-08-12T17:40:12.698Z,55.43
2022-08-12T17:42:48.117Z,51.90
2022-08-12T17:45:19.703Z,54.50
2022-08-12T17:48:04.729Z,52.98
2022-08-12T17:50:36.088Z,56.37
2022-08-12T17:53:05.522Z,57.56
2022-08-12T17:55:44.393Z,64.45
2022-08-12T17:58:17.936Z,69.32
2022-08-12T18:00:50.645Z,71.61
2022-08-12T18:04:04.710Z,75.02
2022-08-12T18:06:13.689Z,76.31
2022-08-12T18:08:54.740Z,82.50
2022-08-12T18:12:03.601Z,83.03
2022-08-12T18:14:31.872Z,83.40
2022-08-12T18:17:02.602Z,83.79
2022-08-12T18:20:04.013Z,87.39
2022-08-12T18:22:30.294Z,91.51
2022-08-12T18:25:04.158Z,96.63
2022-08-12T18:27:44.181Z,97.48
2022-08-12T18:30:28.810Z,99.45
2022-08-12T18:33:03.965Z,99.91
2022-08-12T18:35:47.335Z,100.00
2022-08-12T18:38:24.612Z,100.00
2022-08-12T18:41:21.869Z,100.00
2022-08-12T18:44:06.867Z,100.00
2022-08-12T18:46:56.758Z,100.00
2022-08-12T18:49:34.967Z,100.00
2022-08-12T18:52:08.694Z,100.00
2022-08-12T18:54:49.309Z,100.00
2022-08-12T18:58:05.828Z,100.00
2022-08-12T19:00:21.247Z,100.00
2022-08-12T19:02:53.210Z,100.00
2022-08-12T19:05:53.572Z,100.00
2022-08-12T19:08:15.428Z,100.00
2022-08-12T19:10:50.305Z,100.00
2022-08-12T19:13:39.737Z,100.00
2022-08-12T19:16:11.491Z,100.00
2022-08-12T19:18:45.193Z,100.00
2022-08-12T19:21:16.010Z,100.00
2022-08-12T19:24:05.433Z,100.00
2022-08-12T19:26:35.653Z,100.00
2022-08-12T19:29:07.055Z,100.00
2022-08-12T19:31:58.373Z,100.00
2022-08-12T19:38:02.635Z,100.00
2022-08-12T19:40:30.699Z,100.00
2022-08-12T19:43:19.361Z,100.00
2022-08-12T19:45:51.635Z,100.00
2022-08-12T19:48:22.668Z,100.00
2022-08-12T19:50:57.599Z,100.00
2022-08-12T19:53:27.641Z,100.00
2022-08-12T19:55:58.723Z,100.00
2022-08-12T19:58:27.138Z,100.00
2022-08-12T20:00:56.075Z,100.00
2022-08-12T20:03:38.462Z,100.00
2022-08-12T20:06:15.325Z,100.00
2022-08-12T20:08:53.806Z,100.00
2022-08-12T20:12:14.316Z,100.00
2022-08-12T20:14:18.678Z,100.00
2022-08-12T20:16:53.098Z,100.00
2022-08-12T20:19:52.115Z,100.00
2022-08-12T20:22:24.494Z,100.00
2022-08-12T20:25:00.899Z,100.00
2022-08-12T20:28:04.584Z,100.00
2022-08-12T20:30:37.759Z,100.00
2022-08-12T20:33:17.566Z,100.00
2022-08-12T20:36:13.424Z,100.00
2022-08-12T20:38:42.220Z,100.00
2022-08-12T20:41:17.392Z,100.00
2022-08-12T20:43:52.541Z,100.00
2022-08-12T20:46:23.375Z,100.00
2022-08-12T20:48:57.730Z,100.00
2022-08-12T20:51:55.382Z,100.00
2022-08-12T20:54:19.712Z,100.00
2022-08-12T20:56:48.622Z,100.00
2022-08-12T20:59:21.548Z,100.00
2022-08-12T21:01:53.739Z,100.00
2022-08-12T21:04:43.644Z,100.00
2022-08-12T21:07:14.455Z,100.00
2022-08-12T21:09:47.742Z,100.00
2022-08-12T21:12:28.071Z,100.00
2022-08-12T21:15:23.837Z,100.00
2022-08-12T21:18:08.109Z,100.00
2022-08-12T21:20:38.407Z,100.00
2022-08-12T21:23:07.872Z,100.00
2022-08-12T21:25:45.014Z,100.00
2022-08-12T21:28:14.715Z,100.00
2022-08-12T21:31:11.406Z,100.00
2022-08-12T21:33:32.190Z,100.00
2022-08-12T21:36:22.512Z,100.00
2022-08-12T21:38:54.041Z,100.00
2022-08-12T21:41:24.236Z,100.00
2022-08-12T21:43:52.560Z,100.00
2022-08-12T21:46:35.337Z,100.00
2022-08-12T21:49:05.567Z,100.00
2022-08-12T21:51:49.537Z,100.00
2022-08-12T21:54:22.000Z,100.00
2022-08-12T21:56:53.661Z,100.00
2022-08-12T21:59:22.899Z,100.00
2022-08-12T22:01:53.674Z,100.00
2022-08-12T22:04:41.033Z,100.00
2022-08-12T22:07:18.739Z,100.00
2022-08-12T22:09:47.241Z,100.00
2022-08-12T22:12:37.622Z,100.00
2022-08-12T22:15:09.968Z,100.00
2022-08-12T22:17:55.414Z,100.00
2022-08-12T22:20:29.422Z,100.00
2022-08-12T22:23:00.474Z,100.00
2022-08-12T22:25:31.288Z,100.00
2022-08-12T22:28:24.508Z,100.00
2022-08-12T22:31:11.107Z,100.00
2022-08-12T22:33:53.959Z,100.00
2022-08-12T22:36:29.333Z,100.00
2022-08-12T22:38:59.045Z,100.00
2022-08-12T22:41:45.973Z,100.00
2022-08-12T22:44:32.421Z,100.00
2022-08-12T22:47:53.428Z,100.00
2022-08-12T22:50:28.902Z,100.00
2022-08-12T22:53:16.362Z,100.00
2022-08-12T22:55:59.753Z,100.00
2022-08-12T22:58:40.401Z,100.00
2022-08-12T23:01:11.229Z,100.00
2022-08-12T23:03:49.580Z,100.00
2022-08-12T23:06:24.494Z,100.00
2022-08-12T23:08:54.919Z,100.00
2022-08-12T23:11:25.539Z,100.00
2022-08-12T23:14:03.712Z,100.00
2022-08-12T23:16:34.196Z,100.00
2022-08-12T23:19:10.613Z,100.00
2022-08-12T23:22:05.589Z,100.00
2022-08-12T23:24:55.564Z,100.00
2022-08-12T23:27:50.311Z,100.00
2022-08-12T23:30:31.723Z,100.00
2022-08-12T23:33:20.279Z,100.00
2022-08-12T23:36:02.543Z,100.00
2022-08-12T23:38:34.817Z,100.00
2022-08-12T23:41:06.104Z,100.00
2022-08-12T23:43:41.001Z,100.00
2022-08-12T23:46:18.534Z,100.00
2022-08-12T23:48:50.451Z,100.00
2022-08-12T23:51:25.457Z,100.00
2022-08-12T23:54:02.066Z,100.00
2022-08-12T23:56:33.614Z,100.00
2022-08-12T23:59:06.915Z,100.00
